This is the latest recevied weather packets stored in our database for station/object CA3EVY-3. If no packets are shown the sender has not sent any weather packets the latest 10 day(s).
| Time | Temp. | Humidity | Pressure | Rain* | Wind** | Luminosity | Snow |
|---|---|---|---|---|---|---|---|
| 1777607103 | 15.56° C | 59% | 918.3 hPa | - | - | - | - |
| 1777606204 | 15.56° C | 58% | 918.2 hPa | - | - | - | - |
| 1777605304 | 15.56° C | 58% | 918.1 hPa | - | - | - | - |
| 1777604403 | 16.11° C | 57% | 917.9 hPa | - | - | - | - |
| 1777603504 | 16.11° C | 57% | 918.1 hPa | - | - | - | - |
| 1777602603 | 16.11° C | 57% | 917.9 hPa | - | - | - | - |
| 1777601704 | 16.11° C | 57% | 917.7 hPa | - | - | - | - |
| 1777585504 | 21.11° C | 47% | 915.2 hPa | - | - | - | - |
| 1777584604 | 22.22° C | 44% | 915 hPa | - | - | - | - |
| 1777580104 | 25° C | 42% | 914.2 hPa | - | - | - | - |
| 1777573806 | 23.89° C | 41% | 914.1 hPa | - | - | - | - |
| 1777572004 | 23.89° C | 41% | 914.2 hPa | - | - | - | - |
| 1777560345 | 17.78° C | 54% | 915 hPa | - | - | - | - |
| 1777559404 | 17.22° C | 54% | 914.7 hPa | - | - | - | - |
| 1777556704 | 16.11° C | 53% | 913.9 hPa | - | - | - | - |
| 1777554904 | 15° C | 54% | 913.7 hPa | - | - | - | - |
| 1777551315 | 13.89° C | 56% | 913.7 hPa | - | - | - | - |
| 1777545009 | 13.89° C | 52% | 913.4 hPa | - | - | - | - |
| 1777544104 | 13.89° C | 52% | 913.4 hPa | - | - | - | - |
| 1777542306 | 13.89° C | 52% | 913.5 hPa | - | - | - | - |
| 1777541415 | 13.89° C | 53% | 913.5 hPa | - | - | - | - |
| 1777540509 | 13.89° C | 53% | 913.5 hPa | - | - | - | - |
| 1777539620 | 14.44° C | 53% | 913.6 hPa | - | - | - | - |
| 1777538709 | 14.44° C | 53% | 913.5 hPa | - | - | - | - |
| 1777537807 | 14.44° C | 53% | 913.6 hPa | - | - | - | - |
* Rain since midnight (hover to see other rain measurements)
** Current wind speed in m/s (hover to see current wind gust speed)